Time,TemperatureF,DewpointF,PressureIn,WindDirection,WindDirectionDegrees,WindSpeedMPH,WindSpeedGustMPH,Humidity,HourlyPrecipIn,Conditions,Clouds,dailyrainin,SoftwareType,DateUTC
2013-05-06 00:00:00,60.4,28.8,29.89,SW,233,0.0,0.0,30,0.00,,,0.00,Wunderground v.1.15,2013-05-06 04:00:00,
2013-05-06 00:05:00,60.4,30.4,29.89,SW,233,0.0,0.0,32,0.00,,,0.00,Wunderground v.1.15,2013-05-06 04:05:00,
2013-05-06 00:10:00,60.2,29.4,29.89,SW,233,0.0,0.0,31,0.00,,,0.00,Wunderground v.1.15,2013-05-06 04:10:00,
2013-05-06 00:15:00,60.2,31.0,29.89,SW,233,0.0,0.0,33,0.00,,,0.00,Wunderground v.1.15,2013-05-06 04:15:00,
2013-05-06 00:20:00,60.1,29.3,29.89,SW,233,0.0,0.0,31,0.00,,,0.00,Wunderground v.1.15,2013-05-06 04:20:00,
2013-05-06 00:25:00,60.1,30.1,29.89,SW,233,0.0,0.0,32,0.00,,,0.00,Wunderground v.1.15,2013-05-06 04:25:00,
2013-05-06 00:30:00,59.9,29.2,29.89,SW,233,0.0,0.0,31,0.00,,,0.00,Wunderground v.1.15,2013-05-06 04:30:00,
2013-05-06 00:40:00,59.8,29.1,29.89,SW,233,0.0,0.0,31,0.00,,,0.00,Wunderground v.1.15,2013-05-06 04:40:00,
2013-05-06 00:45:00,59.8,29.1,29.90,SW,233,0.0,0.0,31,0.00,,,0.00,Wunderground v.1.15,2013-05-06 04:45:00,
2013-05-06 00:55:00,59.5,28.8,29.90,SW,233,0.0,0.0,31,0.00,,,0.00,Wunderground v.1.15,2013-05-06 04:55:00,
2013-05-06 01:00:00,59.3,30.2,29.90,SW,233,0.0,0.0,33,0.00,,,0.00,Wunderground v.1.15,2013-05-06 05:00:00,
2013-05-06 01:10:00,59.0,31.4,29.90,SW,233,0.0,0.0,35,0.00,,,0.00,Wunderground v.1.15,2013-05-06 05:10:00,
2013-05-06 01:15:00,58.9,30.6,29.90,SW,233,0.0,0.0,34,0.00,,,0.00,Wunderground v.1.15,2013-05-06 05:15:00,
2013-05-06 01:25:00,58.7,31.1,29.90,SW,233,0.0,0.0,35,0.00,,,0.00,Wunderground v.1.15,2013-05-06 05:25:00,
2013-05-06 01:30:00,58.7,31.8,29.90,SW,233,0.0,0.0,36,0.00,,,0.00,Wunderground v.1.15,2013-05-06 05:30:00,
2013-05-06 01:40:00,58.6,33.0,29.90,SW,233,0.0,0.0,38,0.00,,,0.00,Wunderground v.1.15,2013-05-06 05:40:00,
2013-05-06 01:45:00,58.6,33.0,29.90,SW,233,0.0,0.0,38,0.00,,,0.00,Wunderground v.1.15,2013-05-06 05:45:00,
2013-05-06 01:55:00,58.4,32.9,29.90,SW,233,0.0,0.0,38,0.00,,,0.00,Wunderground v.1.15,2013-05-06 05:55:00,
2013-05-06 02:00:00,58.4,36.0,29.90,SW,233,0.0,0.0,43,0.00,,,0.00,Wunderground v.1.15,2013-05-06 06:00:00,
2013-05-06 02:05:00,58.4,33.5,29.90,SW,233,0.0,0.0,39,0.00,,,0.00,Wunderground v.1.15,2013-05-06 06:05:00,
2013-05-06 02:15:00,58.3,34.1,29.89,SW,233,0.0,0.0,40,0.00,,,0.00,Wunderground v.1.15,2013-05-06 06:15:00,
2013-05-06 02:25:00,58.3,34.1,29.89,SW,233,0.0,0.0,40,0.00,,,0.00,Wunderground v.1.15,2013-05-06 06:25:00,
2013-05-06 02:30:00,58.1,35.7,29.89,SW,233,0.0,0.0,43,0.00,,,0.00,Wunderground v.1.15,2013-05-06 06:30:00,
2013-05-06 02:40:00,58.0,35.6,29.89,SW,233,0.0,0.0,43,0.00,,,0.00,Wunderground v.1.15,2013-05-06 06:40:00,
2013-05-06 02:45:00,58.0,36.2,29.89,SW,233,0.0,0.0,44,0.00,,,0.00,Wunderground v.1.15,2013-05-06 06:45:00,
2013-05-06 02:55:00,57.6,38.0,29.89,SW,233,0.0,0.0,48,0.00,,,0.00,Wunderground v.1.15,2013-05-06 06:55:00,
2013-05-06 03:00:00,57.0,39.0,29.89,SW,233,0.0,0.0,51,0.00,,,0.00,Wunderground v.1.15,2013-05-06 07:00:00,
2013-05-06 03:09:00,56.5,39.6,29.89,SW,233,0.0,0.0,53,0.00,,,0.00,Wunderground v.1.15,2013-05-06 07:09:00,
2013-05-06 03:15:00,56.0,40.1,29.89,SW,233,0.0,0.0,55,0.00,,,0.00,Wunderground v.1.15,2013-05-06 07:15:00,
2013-05-06 03:25:00,55.7,40.2,29.89,SW,233,0.0,0.0,56,0.00,,,0.00,Wunderground v.1.15,2013-05-06 07:25:00,
2013-05-06 03:30:00,55.6,41.0,29.88,SW,233,0.0,0.0,58,0.00,,,0.00,Wunderground v.1.15,2013-05-06 07:30:00,
2013-05-06 03:40:00,55.3,39.9,29.88,SW,233,0.0,0.0,56,0.00,,,0.00,Wunderground v.1.15,2013-05-06 07:40:00,
2013-05-06 03:45:00,55.4,40.0,29.88,SW,233,0.0,0.0,56,0.00,,,0.00,Wunderground v.1.15,2013-05-06 07:45:00,
2013-05-06 03:55:00,55.6,40.1,29.88,SW,233,0.0,0.0,56,0.00,,,0.00,Wunderground v.1.15,2013-05-06 07:55:00,
2013-05-06 04:00:00,55.7,41.1,29.89,SW,233,0.0,0.0,58,0.00,,,0.00,Wunderground v.1.15,2013-05-06 08:00:00,
2013-05-06 04:10:00,55.9,41.3,29.89,SW,233,0.0,0.0,58,0.00,,,0.00,Wunderground v.1.15,2013-05-06 08:10:00,
2013-05-06 04:15:00,55.9,40.4,29.88,SW,233,0.0,0.0,56,0.00,,,0.00,Wunderground v.1.15,2013-05-06 08:15:00,
2013-05-06 04:25:00,55.9,41.3,29.88,SW,233,0.0,0.0,58,0.00,,,0.00,Wunderground v.1.15,2013-05-06 08:25:00,
2013-05-06 04:30:00,55.9,42.2,29.88,SW,233,0.0,0.0,60,0.00,,,0.00,Wunderground v.1.15,2013-05-06 08:30:00,
2013-05-06 04:40:00,55.7,40.2,29.88,West,281,0.0,0.0,56,0.00,,,0.00,Wunderground v.1.15,2013-05-06 08:40:00,
2013-05-06 04:45:00,55.6,40.6,29.89,West,281,0.0,0.0,57,0.00,,,0.00,Wunderground v.1.15,2013-05-06 08:45:00,
2013-05-06 04:55:00,55.4,41.3,29.89,West,281,0.0,0.0,59,0.00,,,0.00,Wunderground v.1.15,2013-05-06 08:55:00,
2013-05-06 05:00:00,55.4,41.7,29.89,West,281,0.0,0.0,60,0.00,,,0.00,Wunderground v.1.15,2013-05-06 09:00:00,
2013-05-06 05:10:00,55.3,41.6,29.89,West,281,0.0,0.0,60,0.00,,,0.00,Wunderground v.1.15,2013-05-06 09:10:00,
2013-05-06 05:15:00,55.1,41.5,29.89,West,281,0.0,0.0,60,0.00,,,0.00,Wunderground v.1.15,2013-05-06 09:15:00,
2013-05-06 05:25:00,55.0,41.4,29.89,West,281,0.0,0.0,60,0.00,,,0.00,Wunderground v.1.15,2013-05-06 09:25:00,
2013-05-06 05:30:00,55.0,41.4,29.89,West,281,0.0,0.0,60,0.00,,,0.00,Wunderground v.1.15,2013-05-06 09:30:00,
2013-05-06 05:40:00,54.8,41.2,29.89,West,281,0.0,0.0,60,0.00,,,0.00,Wunderground v.1.15,2013-05-06 09:40:00,
2013-05-06 05:45:00,54.7,41.1,29.89,West,281,0.0,0.0,60,0.00,,,0.00,Wunderground v.1.15,2013-05-06 09:45:00,
2013-05-06 05:55:00,54.5,40.9,29.89,West,281,0.0,0.0,60,0.00,,,0.00,Wunderground v.1.15,2013-05-06 09:55:00,
2013-05-06 06:00:00,54.4,41.2,29.89,West,281,0.0,0.0,61,0.00,,,0.00,Wunderground v.1.15,2013-05-06 10:00:00,
2013-05-06 06:05:00,54.4,41.6,29.89,West,281,0.0,0.0,62,0.00,,,0.00,Wunderground v.1.15,2013-05-06 10:05:00,
2013-05-06 06:15:00,54.2,41.9,29.89,West,281,0.0,0.0,63,0.00,,,0.00,Wunderground v.1.15,2013-05-06 10:15:00,
2013-05-06 06:25:00,54.2,41.9,29.89,West,281,0.0,0.0,63,0.00,,,0.00,Wunderground v.1.15,2013-05-06 10:25:00,
2013-05-06 06:30:00,54.4,42.5,29.90,West,281,0.0,0.0,64,0.00,,,0.00,Wunderground v.1.15,2013-05-06 10:30:00,
2013-05-06 06:40:00,54.7,41.5,29.90,West,281,0.0,0.0,61,0.00,,,0.00,Wunderground v.1.15,2013-05-06 10:40:00,
2013-05-06 06:45:00,54.8,42.0,29.91,West,281,0.0,0.0,62,0.00,,,0.00,Wunderground v.1.15,2013-05-06 10:45:00,
2013-05-06 06:55:00,54.8,41.6,29.91,West,281,0.0,0.0,61,0.00,,,0.00,Wunderground v.1.15,2013-05-06 10:55:00,
2013-05-06 07:00:00,55.0,41.8,29.91,West,281,0.0,0.0,61,0.00,,,0.00,Wunderground v.1.15,2013-05-06 11:00:00,
2013-05-06 07:10:00,55.0,41.8,29.91,West,281,0.0,0.0,61,0.00,,,0.00,Wunderground v.1.15,2013-05-06 11:10:00,
2013-05-06 07:15:00,55.0,41.8,29.91,West,281,0.0,0.0,61,0.00,,,0.00,Wunderground v.1.15,2013-05-06 11:15:00,
2013-05-06 07:25:00,55.0,42.2,29.91,West,281,0.0,0.0,62,0.00,,,0.00,Wunderground v.1.15,2013-05-06 11:25:00,
2013-05-06 07:30:00,54.8,42.0,29.91,West,281,0.0,0.0,62,0.00,,,0.00,Wunderground v.1.15,2013-05-06 11:30:00,
2013-05-06 07:40:00,54.7,43.2,29.91,West,281,0.0,0.0,65,0.00,,,0.00,Wunderground v.1.15,2013-05-06 11:40:00,
2013-05-06 07:45:00,54.7,42.8,29.92,West,281,0.0,0.0,64,0.00,,,0.00,Wunderground v.1.15,2013-05-06 11:45:00,
2013-05-06 07:55:00,54.7,42.8,29.92,West,281,0.0,0.0,64,0.00,,,0.00,Wunderground v.1.15,2013-05-06 11:55:00,
2013-05-06 08:00:00,54.7,42.3,29.92,West,281,0.0,0.0,63,0.00,,,0.00,Wunderground v.1.15,2013-05-06 12:00:00,
2013-05-06 08:10:00,54.8,42.4,29.92,West,281,0.0,0.0,63,0.00,,,0.00,Wunderground v.1.15,2013-05-06 12:10:00,
2013-05-06 08:15:00,55.0,42.6,29.92,West,281,0.0,0.0,63,0.00,,,0.00,Wunderground v.1.15,2013-05-06 12:15:00,
2013-05-06 08:24:00,55.1,43.1,29.92,West,281,0.0,0.0,64,0.00,,,0.00,Wunderground v.1.15,2013-05-06 12:24:00,
2013-05-06 08:30:00,55.3,42.9,29.92,West,281,0.0,0.0,63,0.00,,,0.00,Wunderground v.1.15,2013-05-06 12:30:00,
2013-05-06 08:40:00,55.4,42.6,29.92,West,281,0.0,0.0,62,0.00,,,0.00,Wunderground v.1.15,2013-05-06 12:40:00,
2013-05-06 08:45:00,55.4,42.6,29.92,West,281,0.0,0.0,62,0.00,,,0.00,Wunderground v.1.15,2013-05-06 12:45:00,
2013-05-06 08:55:00,55.6,43.2,29.92,West,281,0.0,0.0,63,0.00,,,0.00,Wunderground v.1.15,2013-05-06 12:55:00,
2013-05-06 09:00:00,55.6,42.8,29.92,West,281,0.0,0.0,62,0.00,,,0.00,Wunderground v.1.15,2013-05-06 13:00:00,
2013-05-06 09:10:00,55.6,43.2,29.92,West,281,0.0,0.0,63,0.00,,,0.00,Wunderground v.1.15,2013-05-06 13:10:00,
2013-05-06 09:15:00,55.6,43.2,29.92,West,281,0.0,0.0,63,0.00,,,0.00,Wunderground v.1.15,2013-05-06 13:15:00,
2013-05-06 09:25:00,55.9,43.5,29.92,West,281,0.0,1.0,63,0.00,,,0.00,Wunderground v.1.15,2013-05-06 13:25:00,
2013-05-06 09:30:00,55.9,43.5,29.91,West,281,0.0,0.0,63,0.00,,,0.00,Wunderground v.1.15,2013-05-06 13:30:00,
2013-05-06 09:40:00,56.2,44.2,29.91,West,281,0.0,0.0,64,0.00,,,0.00,Wunderground v.1.15,2013-05-06 13:40:00,
2013-05-06 09:45:00,56.5,45.3,29.91,West,281,0.0,0.0,66,0.00,,,0.00,Wunderground v.1.15,2013-05-06 13:45:00,
2013-05-06 09:55:00,56.7,45.1,29.91,NNE,20,0.0,0.0,65,0.00,,,0.00,Wunderground v.1.15,2013-05-06 13:55:00,
2013-05-06 10:00:00,56.9,44.8,29.92,NNE,21,0.0,0.0,64,0.00,,,0.00,Wunderground v.1.15,2013-05-06 14:00:00,
2013-05-06 10:10:00,56.9,44.4,29.92,NNE,21,0.0,0.0,63,0.00,,,0.00,Wunderground v.1.15,2013-05-06 14:10:00,
2013-05-06 10:15:00,56.9,45.3,29.92,NNE,21,0.0,0.0,65,0.00,,,0.00,Wunderground v.1.15,2013-05-06 14:15:00,
2013-05-06 10:25:00,57.0,45.3,29.92,NNE,22,0.0,0.0,65,0.00,,,0.00,Wunderground v.1.15,2013-05-06 14:25:00,
2013-05-06 10:30:00,56.9,44.8,29.92,NNE,22,0.0,0.0,64,0.00,,,0.00,Wunderground v.1.15,2013-05-06 14:30:00,
2013-05-06 10:40:00,57.3,45.6,29.92,NNE,22,0.0,0.0,65,0.00,,,0.00,Wunderground v.1.15,2013-05-06 14:40:00,
2013-05-06 10:45:00,57.8,45.7,29.92,East,82,0.0,0.0,64,0.00,,,0.00,Wunderground v.1.15,2013-05-06 14:45:00,
2013-05-06 10:55:00,59.0,46.0,29.92,East,82,0.0,0.0,62,0.00,,,0.00,Wunderground v.1.15,2013-05-06 14:55:00,
2013-05-06 11:00:00,59.9,46.4,29.92,East,82,0.0,1.0,61,0.00,,,0.00,Wunderground v.1.15,2013-05-06 15:00:00,
2013-05-06 11:05:00,60.9,47.4,29.92,NE,38,0.0,1.0,61,0.00,,,0.00,Wunderground v.1.15,2013-05-06 15:05:00,
2013-05-06 11:15:00,62.6,47.1,29.92,NE,40,1.0,1.0,57,0.00,,,0.00,Wunderground v.1.15,2013-05-06 15:15:00,
2013-05-06 11:25:00,63.1,47.1,29.92,NE,48,0.0,1.0,56,0.00,,,0.00,Wunderground v.1.15,2013-05-06 15:25:00,
2013-05-06 11:30:00,63.2,46.8,29.92,NNE,19,0.0,0.0,55,0.00,,,0.00,Wunderground v.1.15,2013-05-06 15:30:00,
2013-05-06 11:40:00,63.4,47.9,29.92,ENE,65,0.0,0.0,57,0.00,,,0.00,Wunderground v.1.15,2013-05-06 15:40:00,
2013-05-06 11:45:00,63.4,47.4,29.92,NNW,347,0.0,0.0,56,0.00,,,0.00,Wunderground v.1.15,2013-05-06 15:45:00,
2013-05-06 11:55:00,64.0,49.4,29.92,ENE,74,0.0,0.0,59,0.00,,,0.00,Wunderground v.1.15,2013-05-06 15:55:00,
2013-05-06 12:00:00,64.8,48.2,29.92,East,90,0.0,0.0,55,0.00,,,0.00,Wunderground v.1.15,2013-05-06 16:00:00,
2013-05-06 12:10:00,65.5,49.4,29.92,NE,52,0.0,1.0,56,0.00,,,0.00,Wunderground v.1.15,2013-05-06 16:10:00,
2013-05-06 12:15:00,66.1,49.0,29.92,West,269,1.0,2.0,54,0.00,,,0.00,Wunderground v.1.15,2013-05-06 16:15:00,
2013-05-06 12:24:00,67.1,48.9,29.92,NNE,33,1.0,2.0,52,0.00,,,0.00,Wunderground v.1.15,2013-05-06 16:24:00,
2013-05-06 12:30:00,67.6,48.3,29.91,NNE,24,1.0,1.0,50,0.00,,,0.00,Wunderground v.1.15,2013-05-06 16:30:00,
2013-05-06 12:40:00,67.3,48.5,29.91,NE,48,1.0,1.0,51,0.00,,,0.00,Wunderground v.1.15,2013-05-06 16:40:00,
2013-05-06 12:45:00,67.6,48.8,29.91,NE,50,1.0,1.0,51,0.00,,,0.00,Wunderground v.1.15,2013-05-06 16:45:00,
2013-05-06 12:55:00,68.8,48.3,29.91,ENE,64,1.0,2.0,48,0.00,,,0.00,Wunderground v.1.15,2013-05-06 16:55:00,
2013-05-06 13:00:00,68.9,51.1,29.91,NNW,341,1.0,1.0,53,0.00,,,0.00,Wunderground v.1.15,2013-05-06 17:00:00,
2013-05-06 13:10:00,68.4,50.6,29.91,ENE,65,1.0,1.0,53,0.00,,,0.00,Wunderground v.1.15,2013-05-06 17:10:00,
2013-05-06 13:15:00,68.4,51.6,29.90,East,80,1.0,1.0,55,0.00,,,0.00,Wunderground v.1.15,2013-05-06 17:15:00,
2013-05-06 13:25:00,69.1,50.7,29.90,SW,216,1.0,2.0,52,0.00,,,0.00,Wunderground v.1.15,2013-05-06 17:25:00,
2013-05-06 13:30:00,68.9,49.5,29.89,East,89,1.0,1.0,50,0.00,,,0.00,Wunderground v.1.15,2013-05-06 17:30:00,
2013-05-06 13:40:00,68.4,51.1,29.89,ENE,63,1.0,1.0,54,0.00,,,0.00,Wunderground v.1.15,2013-05-06 17:40:00,
2013-05-06 13:45:00,68.3,51.0,29.89,WSW,240,0.0,1.0,54,0.00,,,0.00,Wunderground v.1.15,2013-05-06 17:45:00,
2013-05-06 13:55:00,68.1,52.3,29.89,WSW,248,0.0,0.0,57,0.00,,,0.00,Wunderground v.1.15,2013-05-06 17:55:00,
2013-05-06 14:00:00,67.9,50.1,29.89,WSW,248,0.0,0.0,53,0.00,,,0.00,Wunderground v.1.15,2013-05-06 18:00:00,
2013-05-06 14:09:00,67.9,51.1,29.89,WSW,248,0.0,0.0,55,0.00,,,0.00,Wunderground v.1.15,2013-05-06 18:09:00,
2013-05-06 14:15:00,68.1,50.8,29.89,WSW,248,0.0,0.0,54,0.00,,,0.00,Wunderground v.1.15,2013-05-06 18:15:00,
2013-05-06 14:25:00,67.8,50.0,29.89,WSW,248,0.0,0.0,53,0.00,,,0.00,Wunderground v.1.15,2013-05-06 18:25:00,
2013-05-06 14:30:00,67.6,50.9,29.89,WSW,248,0.0,0.0,55,0.00,,,0.00,Wunderground v.1.15,2013-05-06 18:30:00,
2013-05-06 14:40:00,66.9,51.6,29.89,WSW,248,0.0,0.0,58,0.00,,,0.00,Wunderground v.1.15,2013-05-06 18:40:00,
2013-05-06 14:45:00,66.4,52.5,29.89,WSW,248,0.0,0.0,61,0.00,,,0.00,Wunderground v.1.15,2013-05-06 18:45:00,
2013-05-06 14:55:00,66.1,53.1,29.89,WSW,248,0.0,0.0,63,0.00,,,0.00,Wunderground v.1.15,2013-05-06 18:55:00,
2013-05-06 15:00:00,66.0,53.5,29.89,WSW,248,0.0,0.0,64,0.00,,,0.00,Wunderground v.1.15,2013-05-06 19:00:00,
2013-05-06 15:10:00,65.8,51.5,29.89,WSW,253,0.0,0.0,60,0.00,,,0.00,Wunderground v.1.15,2013-05-06 19:10:00,
2013-05-06 15:15:00,66.0,51.7,29.89,WSW,253,0.0,0.0,60,0.00,,,0.00,Wunderground v.1.15,2013-05-06 19:15:00,
2013-05-06 15:25:00,65.8,51.1,29.89,WSW,253,0.0,0.0,59,0.00,,,0.00,Wunderground v.1.15,2013-05-06 19:25:00,
2013-05-06 15:30:00,65.6,50.9,29.88,WSW,253,0.0,0.0,59,0.00,,,0.00,Wunderground v.1.15,2013-05-06 19:30:00,
2013-05-06 15:40:00,65.8,52.4,29.88,WSW,253,0.0,0.0,62,0.00,,,0.00,Wunderground v.1.15,2013-05-06 19:40:00,
2013-05-06 15:45:00,66.0,54.3,29.87,WSW,253,0.0,0.0,66,0.00,,,0.00,Wunderground v.1.15,2013-05-06 19:45:00,
2013-05-06 15:55:00,66.0,52.6,29.87,WSW,253,0.0,0.0,62,0.00,,,0.00,Wunderground v.1.15,2013-05-06 19:55:00,
2013-05-06 16:00:00,66.0,52.6,29.87,WSW,253,0.0,0.0,62,0.00,,,0.00,Wunderground v.1.15,2013-05-06 20:00:00,
2013-05-06 16:09:00,66.0,51.7,29.87,West,259,0.0,0.0,60,0.00,,,0.00,Wunderground v.1.15,2013-05-06 20:09:00,
2013-05-06 16:15:00,66.0,52.2,29.87,West,259,0.0,0.0,61,0.00,,,0.00,Wunderground v.1.15,2013-05-06 20:15:00,
2013-05-06 16:25:00,65.5,53.0,29.87,West,259,0.0,0.0,64,0.00,,,0.00,Wunderground v.1.15,2013-05-06 20:25:00,
2013-05-06 16:30:00,65.0,53.8,29.88,WSW,257,0.0,2.0,67,0.00,,,0.00,Wunderground v.1.15,2013-05-06 20:30:00,
2013-05-06 16:40:00,64.2,53.8,29.88,WSW,257,0.0,0.0,69,0.00,,,0.00,Wunderground v.1.15,2013-05-06 20:40:00,
2013-05-06 16:45:00,64.2,54.2,29.88,WSW,257,0.0,0.0,70,0.00,,,0.00,Wunderground v.1.15,2013-05-06 20:45:00,
2013-05-06 16:54:00,64.3,53.5,29.88,WSW,252,0.0,0.0,68,0.00,,,0.00,Wunderground v.1.15,2013-05-06 20:54:00,
2013-05-06 17:00:00,64.3,53.1,29.88,WSW,244,0.0,0.0,67,0.00,,,0.00,Wunderground v.1.15,2013-05-06 21:00:00,
2013-05-06 17:10:00,64.3,54.3,29.88,WSW,244,0.0,0.0,70,0.00,,,0.00,Wunderground v.1.15,2013-05-06 21:10:00,
2013-05-06 17:15:00,64.2,55.0,29.88,WSW,244,0.0,0.0,72,0.00,,,0.00,Wunderground v.1.15,2013-05-06 21:15:00,
2013-05-06 17:25:00,63.7,55.3,29.88,WSW,244,0.0,0.0,74,0.00,,,0.01,Wunderground v.1.15,2013-05-06 21:25:00,
2013-05-06 17:30:00,63.2,55.1,29.88,WSW,244,0.0,0.0,75,0.00,,,0.01,Wunderground v.1.15,2013-05-06 21:30:00,
2013-05-06 17:40:00,62.7,55.7,29.88,WSW,244,0.0,0.0,78,0.00,,,0.01,Wunderground v.1.15,2013-05-06 21:40:00,
2013-05-06 17:45:00,62.9,56.6,29.88,WSW,244,0.0,0.0,80,0.00,,,0.01,Wunderground v.1.15,2013-05-06 21:45:00,
2013-05-06 17:55:00,63.1,55.4,29.88,WSW,244,0.0,0.0,76,0.00,,,0.01,Wunderground v.1.15,2013-05-06 21:55:00,
2013-05-06 18:00:00,63.2,55.5,29.88,WSW,244,0.0,0.0,76,0.00,,,0.01,Wunderground v.1.15,2013-05-06 22:00:00,
2013-05-06 18:10:00,63.5,55.8,29.88,WSW,244,0.0,0.0,76,0.00,,,0.01,Wunderground v.1.15,2013-05-06 22:10:00,
2013-05-06 18:15:00,63.5,55.4,29.88,WSW,244,0.0,0.0,75,0.00,,,0.01,Wunderground v.1.15,2013-05-06 22:15:00,
2013-05-06 18:25:00,63.4,55.0,29.88,WSW,244,0.0,0.0,74,0.00,,,0.01,Wunderground v.1.15,2013-05-06 22:25:00,
2013-05-06 18:30:00,63.4,55.0,29.88,WSW,244,0.0,0.0,74,0.00,,,0.01,Wunderground v.1.15,2013-05-06 22:30:00,
2013-05-06 18:40:00,63.1,55.0,29.88,WSW,244,0.0,0.0,75,0.00,,,0.01,Wunderground v.1.15,2013-05-06 22:40:00,
2013-05-06 18:45:00,62.9,55.2,29.88,WSW,244,0.0,0.0,76,0.00,,,0.01,Wunderground v.1.15,2013-05-06 22:45:00,
2013-05-06 18:55:00,62.6,56.0,29.88,WSW,244,0.0,0.0,79,0.00,,,0.01,Wunderground v.1.15,2013-05-06 22:55:00,
2013-05-06 19:00:00,62.3,56.0,29.88,WSW,244,0.0,0.0,80,0.00,,,0.01,Wunderground v.1.15,2013-05-06 23:00:00,
2013-05-06 19:05:00,62.3,56.0,29.88,WSW,244,0.0,0.0,80,0.00,,,0.01,Wunderground v.1.15,2013-05-06 23:05:00,
2013-05-06 19:15:00,62.0,56.1,29.89,WSW,244,0.0,0.0,81,0.00,,,0.01,Wunderground v.1.15,2013-05-06 23:15:00,
2013-05-06 19:25:00,61.5,56.6,29.89,SSW,200,0.0,1.0,84,0.00,,,0.01,Wunderground v.1.15,2013-05-06 23:25:00,
2013-05-06 19:30:00,61.0,56.5,29.89,SSW,200,0.0,0.0,85,0.00,,,0.01,Wunderground v.1.15,2013-05-06 23:30:00,
2013-05-06 19:40:00,60.4,55.9,29.89,SSW,200,0.0,0.0,85,0.00,,,0.01,Wunderground v.1.15,2013-05-06 23:40:00,
2013-05-06 19:45:00,60.1,55.9,29.89,SSW,200,0.0,0.0,86,0.00,,,0.01,Wunderground v.1.15,2013-05-06 23:45:00,
2013-05-06 19:55:00,59.8,55.9,29.89,SSW,200,0.0,0.0,87,0.00,,,0.01,Wunderground v.1.15,2013-05-06 23:55:00,
2013-05-06 20:00:00,59.8,56.2,29.89,SSW,200,0.0,0.0,88,0.00,,,0.01,Wunderground v.1.15,2013-05-07 00:00:00,
2013-05-06 20:10:00,59.5,55.9,29.89,SSW,200,0.0,0.0,88,0.00,,,0.01,Wunderground v.1.15,2013-05-07 00:10:00,
2013-05-06 20:15:00,59.3,55.7,29.89,SSW,200,0.0,0.0,88,0.00,,,0.01,Wunderground v.1.15,2013-05-07 00:15:00,
2013-05-06 20:25:00,59.0,55.4,29.89,SSW,200,0.0,0.0,88,0.00,,,0.01,Wunderground v.1.15,2013-05-07 00:25:00,
2013-05-06 20:30:00,58.9,55.4,29.89,SSW,200,0.0,0.0,88,0.00,,,0.01,Wunderground v.1.15,2013-05-07 00:30:00,
2013-05-06 20:40:00,58.7,55.2,29.89,SSW,200,0.0,0.0,88,0.00,,,0.01,Wunderground v.1.15,2013-05-07 00:40:00,
2013-05-06 20:45:00,58.6,55.4,29.89,SSW,200,0.0,0.0,89,0.00,,,0.01,Wunderground v.1.15,2013-05-07 00:45:00,
2013-05-06 20:55:00,58.3,55.1,29.89,SSW,200,0.0,0.0,89,0.00,,,0.01,Wunderground v.1.15,2013-05-07 00:55:00,
2013-05-06 21:00:00,58.3,55.1,29.90,SSW,200,0.0,0.0,89,0.00,,,0.01,Wunderground v.1.15,2013-05-07 01:00:00,
2013-05-06 21:10:00,58.0,54.8,29.90,SSW,200,0.0,1.0,89,0.00,,,0.01,Wunderground v.1.15,2013-05-07 01:10:00,
2013-05-06 21:15:00,57.8,54.6,29.90,SSW,200,0.0,1.0,89,0.00,,,0.01,Wunderground v.1.15,2013-05-07 01:15:00,
2013-05-06 21:25:00,57.8,54.6,29.90,SSW,200,0.0,0.0,89,0.00,,,0.01,Wunderground v.1.15,2013-05-07 01:25:00,
2013-05-06 21:30:00,57.8,54.6,29.90,SSW,200,0.0,0.0,89,0.00,,,0.01,Wunderground v.1.15,2013-05-07 01:30:00,
2013-05-06 21:40:00,57.8,54.6,29.90,SSW,200,0.0,0.0,89,0.00,,,0.01,Wunderground v.1.15,2013-05-07 01:40:00,
2013-05-06 21:45:00,57.6,54.4,29.90,SSW,200,0.0,0.0,89,0.00,,,0.01,Wunderground v.1.15,2013-05-07 01:45:00,
2013-05-06 21:55:00,57.3,53.8,29.90,SSW,200,0.0,0.0,88,0.00,,,0.01,Wunderground v.1.15,2013-05-07 01:55:00,
2013-05-06 22:00:00,57.2,53.7,29.91,SSW,211,0.0,0.0,88,0.00,,,0.01,Wunderground v.1.15,2013-05-07 02:00:00,
2013-05-06 22:10:00,57.0,53.5,29.91,SSW,211,0.0,0.0,88,0.00,,,0.01,Wunderground v.1.15,2013-05-07 02:10:00,
2013-05-06 22:15:00,56.9,53.4,29.91,SSW,211,0.0,0.0,88,0.00,,,0.01,Wunderground v.1.15,2013-05-07 02:15:00,
2013-05-06 22:25:00,56.6,53.4,29.91,SSW,211,0.0,0.0,89,0.00,,,0.01,Wunderground v.1.15,2013-05-07 02:25:00,
2013-05-06 22:30:00,56.6,53.4,29.91,SSW,211,0.0,0.0,89,0.00,,,0.01,Wunderground v.1.15,2013-05-07 02:30:00,
2013-05-06 22:40:00,56.5,53.3,29.91,SSW,211,0.0,0.0,89,0.00,,,0.01,Wunderground v.1.15,2013-05-07 02:40:00,
2013-05-06 22:45:00,56.5,53.3,29.91,SSW,211,0.0,0.0,89,0.00,,,0.01,Wunderground v.1.15,2013-05-07 02:45:00,
2013-05-06 22:55:00,56.6,53.4,29.91,SSW,211,0.0,0.0,89,0.00,,,0.01,Wunderground v.1.15,2013-05-07 02:55:00,
2013-05-06 23:00:00,56.7,53.2,29.91,SSW,211,0.0,0.0,88,0.00,,,0.01,Wunderground v.1.15,2013-05-07 03:00:00,
2013-05-06 23:10:00,56.9,53.4,29.91,SSW,211,0.0,0.0,88,0.00,,,0.01,Wunderground v.1.15,2013-05-07 03:10:00,
2013-05-06 23:15:00,57.0,53.2,29.91,SSW,211,0.0,0.0,87,0.00,,,0.01,Wunderground v.1.15,2013-05-07 03:15:00,
2013-05-06 23:25:00,57.0,53.2,29.91,SSW,211,0.0,0.0,87,0.00,,,0.01,Wunderground v.1.15,2013-05-07 03:25:00,
2013-05-06 23:30:00,57.0,52.9,29.91,SSW,211,0.0,0.0,86,0.00,,,0.01,Wunderground v.1.15,2013-05-07 03:30:00,
2013-05-06 23:40:00,57.0,52.9,29.91,SSW,211,0.0,0.0,86,0.00,,,0.01,Wunderground v.1.15,2013-05-07 03:40:00,
2013-05-06 23:45:00,57.0,52.9,29.91,SSW,211,0.0,0.0,86,0.00,,,0.01,Wunderground v.1.15,2013-05-07 03:45:00,
2013-05-06 23:55:00,57.0,52.9,29.91,SSW,211,0.0,0.0,86,0.00,,,0.01,Wunderground v.1.15,2013-05-07 03:55:00,